Time;durP1;ratioP1;P1;durP2;ratioP2;P2;SDS_P1;SDS_P2;PMS_P1;PMS_P2;Temp;Humidity;BMP_temperature;BMP_pressure;BME280_temperature;BME280_humidity;BME280_pressure;Samples;Min_cycle;Max_cycle;Signal;HPM_P1;HPM_P2
2022/07/17 00:01:30;;;;;;;6.55;2.25;;;13.70;99.90;;;;;;4937416;28;20643;-72
2022/07/17 00:03:58;;;;;;;7.45;2.05;;;13.70;99.90;;;;;;4937850;29;20129;-73
2022/07/17 00:06:24;;;;;;;4.85;2.08;;;13.60;99.90;;;;;;4937540;29;20214;-73
2022/07/17 00:08:50;;;;;;;6.55;2.22;;;13.70;99.90;;;;;;4937952;29;20094;-72
2022/07/17 00:11:15;;;;;;;4.35;2.13;;;13.60;99.90;;;;;;4954536;28;20097;-72
2022/07/17 00:13:41;;;;;;;3.00;1.75;;;13.50;99.90;;;;;;4954629;28;20046;-72
2022/07/17 00:16:07;;;;;;;6.82;2.08;;;13.60;99.90;;;;;;4937817;29;20101;-72
2022/07/17 00:18:32;;;;;;;4.88;1.88;;;13.50;99.90;;;;;;4937852;29;20556;-72
2022/07/17 00:20:58;;;;;;;6.13;1.90;;;13.50;99.90;;;;;;4937229;29;20051;-72
2022/07/17 00:23:24;;;;;;;6.80;1.90;;;13.50;99.90;;;;;;4937504;29;20069;-71
2022/07/17 00:25:49;;;;;;;3.83;1.90;;;13.40;99.90;;;;;;4937346;29;20043;-72
2022/07/17 00:28:15;;;;;;;3.38;1.92;;;13.40;99.90;;;;;;4921655;29;20044;-71
2022/07/17 00:30:40;;;;;;;5.15;2.10;;;13.50;99.90;;;;;;4937266;29;20042;-72
2022/07/17 00:33:06;;;;;;;7.28;1.80;;;13.40;99.90;;;;;;4921191;29;20161;-71
2022/07/17 00:35:32;;;;;;;4.57;2.05;;;13.40;99.90;;;;;;4937420;29;20126;-71
2022/07/17 00:37:57;;;;;;;4.55;2.50;;;13.40;99.90;;;;;;4937136;29;20489;-72
2022/07/17 00:40:24;;;;;;;5.22;1.85;;;13.40;99.90;;;;;;4920619;29;20054;-71
2022/07/17 00:42:51;;;;;;;5.60;2.05;;;13.40;99.90;;;;;;4936937;29;20058;-72
2022/07/17 00:45:17;;;;;;;7.75;3.15;;;13.30;99.90;;;;;;4936986;29;20043;-71
2022/07/17 00:48:03;;;;;;;5.82;2.17;;;13.20;99.90;;;;;;4954429;28;20039;-71
2022/07/17 00:50:33;;;;;;;6.95;2.38;;;13.10;99.90;;;;;;4936661;29;20047;-72
2022/07/17 00:52:59;;;;;;;4.30;2.38;;;13.00;99.90;;;;;;4936939;29;20468;-71
2022/07/17 00:55:25;;;;;;;4.55;2.83;;;13.00;99.90;;;;;;4936755;29;20043;-72
2022/07/17 00:57:54;;;;;;;4.82;2.25;;;13.00;99.90;;;;;;4936726;29;20043;-71
2022/07/17 01:00:21;;;;;;;2.35;2.03;;;12.90;99.90;;;;;;4936604;29;20054;-71
2022/07/17 01:02:51;;;;;;;7.32;2.78;;;12.70;99.90;;;;;;4920900;29;20101;-72
2022/07/17 01:05:19;;;;;;;3.95;2.50;;;12.70;99.90;;;;;;4920841;29;20395;-72
2022/07/17 01:07:45;;;;;;;6.00;2.22;;;12.70;99.90;;;;;;4953902;28;20031;-72
2022/07/17 01:10:12;;;;;;;6.03;2.33;;;12.70;99.90;;;;;;4936277;29;20047;-72
2022/07/17 01:12:38;;;;;;;5.53;2.20;;;12.80;99.90;;;;;;4936490;29;20050;-71
2022/07/17 01:15:05;;;;;;;6.82;2.50;;;12.70;99.90;;;;;;4936805;29;20572;-71
2022/07/17 01:17:31;;;;;;;3.70;2.55;;;12.70;99.90;;;;;;4936535;29;20039;-72
2022/07/17 01:19:57;;;;;;;5.05;2.67;;;12.80;99.90;;;;;;4953462;29;20035;-71
2022/07/17 01:22:22;;;;;;;3.60;2.35;;;12.70;99.90;;;;;;4953594;28;20039;-71
2022/07/17 01:24:48;;;;;;;4.75;2.00;;;12.70;99.90;;;;;;4936571;29;20067;-71
2022/07/17 01:27:15;;;;;;;5.10;2.00;;;12.70;99.90;;;;;;4936835;29;20485;-72
2022/07/17 01:29:40;;;;;;;3.88;2.08;;;12.80;99.90;;;;;;4936169;29;20408;-71
2022/07/17 01:32:06;;;;;;;2.85;1.98;;;12.70;99.90;;;;;;4936280;28;20134;-71
2022/07/17 01:34:32;;;;;;;5.55;2.13;;;12.60;99.90;;;;;;4936473;29;20039;-71
2022/07/17 01:36:58;;;;;;;6.45;2.10;;;12.60;99.90;;;;;;4936345;29;20050;-71
2022/07/17 01:42:09;;;;;;;3.53;2.17;;;12.60;99.90;;;;;;4936318;28;20133;-71
2022/07/17 01:44:35;;;;;;;3.67;2.55;;;12.50;99.90;;;;;;4953657;29;20072;-71
2022/07/17 01:47:01;;;;;;;5.72;2.42;;;12.50;99.90;;;;;;4936285;29;20090;-71
2022/07/17 01:49:27;;;;;;;6.47;3.08;;;12.40;99.90;;;;;;4935958;29;20497;-71
2022/07/17 01:51:52;;;;;;;4.72;2.67;;;12.50;99.90;;;;;;4936862;28;20075;-71
2022/07/17 01:54:18;;;;;;;5.55;2.33;;;12.40;99.90;;;;;;4924111;29;20485;-71
2022/07/17 01:56:44;;;;;;;7.30;2.50;;;12.50;99.90;;;;;;4940015;29;20069;-72
2022/07/17 01:59:09;;;;;;;5.30;2.20;;;12.40;99.90;;;;;;4957076;28;20043;-71
2022/07/17 02:01:35;;;;;;;4.15;2.05;;;12.50;99.90;;;;;;4939767;29;20071;-71
2022/07/17 02:04:00;;;;;;;2.13;1.75;;;12.50;99.90;;;;;;4940088;29;20405;-71
2022/07/17 02:06:26;;;;;;;5.82;2.17;;;12.50;99.90;;;;;;4923873;28;20493;-72
2022/07/17 02:08:51;;;;;;;4.25;1.80;;;12.50;99.90;;;;;;4939811;29;20457;-72
2022/07/17 02:11:18;;;;;;;8.82;2.17;;;12.40;99.90;;;;;;4939808;29;20047;-71
2022/07/17 02:13:44;;;;;;;3.78;1.85;;;12.50;99.90;;;;;;4939680;29;20053;-71
2022/07/17 02:16:09;;;;;;;3.80;2.80;;;12.40;99.90;;;;;;4939709;29;20039;-71
2022/07/17 02:18:35;;;;;;;1.83;1.40;;;12.40;99.90;;;;;;4923757;29;20035;-71
2022/07/17 02:21:01;;;;;;;3.40;1.90;;;12.40;99.90;;;;;;4923710;28;20134;-72
2022/07/17 02:23:28;;;;;;;3.10;1.70;;;12.40;99.90;;;;;;4923596;29;20058;-72
2022/07/17 02:25:54;;;;;;;3.90;1.95;;;12.40;99.90;;;;;;4939432;29;20043;-71
2022/07/17 02:28:19;;;;;;;2.45;1.50;;;12.40;99.90;;;;;;4939503;29;20097;-71
2022/07/17 02:30:45;;;;;;;3.30;1.67;;;12.30;99.90;;;;;;4939367;29;20042;-72
2022/07/17 02:33:11;;;;;;;4.00;1.77;;;12.30;99.90;;;;;;4923410;29;20046;-71
2022/07/17 02:35:37;;;;;;;5.30;2.65;;;12.40;99.90;;;;;;4923322;28;20043;-72
2022/07/17 02:38:02;;;;;;;2.95;1.70;;;12.30;99.90;;;;;;4939596;29;20043;-72
2022/07/17 02:40:28;;;;;;;2.70;1.48;;;12.30;99.90;;;;;;4938940;29;20066;-72
2022/07/17 02:42:54;;;;;;;4.10;1.70;;;12.40;99.90;;;;;;4939148;29;20054;-72
2022/07/17 02:45:24;;;;;;;2.67;1.48;;;12.40;99.90;;;;;;4956283;28;20043;-72
2022/07/17 02:47:50;;;;;;;3.10;1.63;;;12.30;99.90;;;;;;4939344;29;20039;-72
2022/07/17 02:50:16;;;;;;;3.05;1.67;;;12.30;99.90;;;;;;4939275;28;20466;-71
2022/07/17 02:52:43;;;;;;;3.47;1.90;;;12.30;99.90;;;;;;4923556;29;20126;-71
2022/07/17 02:55:10;;;;;;;2.35;2.08;;;12.30;99.90;;;;;;4939225;29;20047;-72
2022/07/17 02:57:36;;;;;;;2.55;2.15;;;12.20;99.90;;;;;;4939187;29;20517;-72
2022/07/17 03:00:05;;;;;;;5.05;2.05;;;12.10;99.90;;;;;;4938996;29;20449;-71
2022/07/17 03:02:30;;;;;;;3.65;2.20;;;12.10;99.90;;;;;;4938125;29;20047;-71
2022/07/17 03:04:56;;;;;;;6.47;2.58;;;12.00;99.90;;;;;;4938766;29;20097;-71
2022/07/17 03:07:22;;;;;;;3.55;2.20;;;11.90;99.90;;;;;;4922876;29;20039;-71
2022/07/17 03:09:47;;;;;;;3.15;2.20;;;11.80;99.90;;;;;;4938522;29;20089;-72
2022/07/17 03:12:13;;;;;;;4.18;2.10;;;11.90;99.90;;;;;;4938672;28;20039;-71
2022/07/17 03:14:39;;;;;;;5.85;2.85;;;11.80;99.90;;;;;;4938719;29;20071;-72
2022/07/17 03:17:04;;;;;;;3.08;2.30;;;11.80;99.90;;;;;;4938517;29;20039;-71
2022/07/17 03:19:30;;;;;;;2.83;2.10;;;11.80;99.90;;;;;;4938300;29;20042;-71
2022/07/17 03:21:55;;;;;;;5.95;2.53;;;11.80;99.90;;;;;;4938515;29;20039;-72
2022/07/17 03:24:21;;;;;;;5.15;2.42;;;11.80;99.90;;;;;;4938367;29;20054;-71
2022/07/17 03:26:46;;;;;;;3.45;2.40;;;11.80;99.90;;;;;;4938266;29;20035;-71
2022/07/17 03:29:12;;;;;;;6.53;3.13;;;11.70;99.90;;;;;;4922409;29;20031;-70
2022/07/17 03:31:38;;;;;;;4.13;2.47;;;11.70;99.90;;;;;;4938379;29;20078;-71
2022/07/17 03:34:04;;;;;;;4.07;2.75;;;11.80;99.90;;;;;;4922640;29;20039;-72
2022/07/17 03:36:29;;;;;;;3.70;2.30;;;11.80;99.90;;;;;;4938197;29;20560;-71
2022/07/17 03:38:55;;;;;;;7.68;2.70;;;11.80;99.90;;;;;;4938233;29;20417;-71
2022/07/17 03:41:20;;;;;;;4.75;2.40;;;11.90;99.90;;;;;;4937883;29;20047;-71
2022/07/17 03:43:46;;;;;;;6.28;2.58;;;11.80;99.90;;;;;;4922170;29;20134;-71
2022/07/17 03:46:11;;;;;;;5.30;2.58;;;11.80;99.90;;;;;;4937746;29;20136;-71
2022/07/17 03:48:37;;;;;;;5.85;2.58;;;11.80;99.90;;;;;;4937869;29;20471;-71
2022/07/17 03:51:02;;;;;;;5.07;2.78;;;11.90;99.90;;;;;;4937541;29;20386;-71
2022/07/17 03:53:28;;;;;;;9.18;3.88;;;12.00;99.90;;;;;;4937802;29;20127;-72
2022/07/17 03:55:54;;;;;;;8.98;2.97;;;11.90;99.90;;;;;;4937940;29;20078;-71
2022/07/17 03:58:19;;;;;;;7.53;2.92;;;12.00;99.90;;;;;;4938127;29;20047;-72
2022/07/17 04:00:45;;;;;;;5.95;3.10;;;12.00;99.90;;;;;;4937463;28;20489;-71
2022/07/17 04:03:10;;;;;;;6.47;2.97;;;12.00;99.90;;;;;;4937658;29;20039;-72
2022/07/17 04:05:36;;;;;;;5.38;3.00;;;12.00;99.90;;;;;;4937510;29;20047;-71
2022/07/17 04:08:01;;;;;;;6.35;2.38;;;12.00;99.90;;;;;;4937972;29;20087;-71
2022/07/17 04:10:27;;;;;;;4.53;2.50;;;12.10;99.90;;;;;;4937418;29;20039;-71
2022/07/17 04:12:52;;;;;;;3.70;2.25;;;12.10;99.90;;;;;;4921810;29;20595;-72
2022/07/17 04:15:48;;;;;;;4.28;2.50;;;12.10;99.90;;;;;;4936892;29;20035;-71
2022/07/17 04:18:04;;;;;;;3.83;2.00;;;12.10;99.90;;;;;;4937717;29;20073;-71
2022/07/17 04:20:29;;;;;;;4.40;2.53;;;12.10;99.90;;;;;;4937262;29;20039;-71
2022/07/17 04:22:55;;;;;;;3.42;2.35;;;12.00;99.90;;;;;;4937366;29;20497;-71
2022/07/17 04:25:20;;;;;;;3.50;2.20;;;12.00;99.90;;;;;;4937187;29;20126;-71
2022/07/17 04:27:46;;;;;;;4.65;2.25;;;12.10;99.90;;;;;;4937372;29;20420;-71
2022/07/17 04:30:12;;;;;;;3.45;2.40;;;12.10;99.90;;;;;;4936867;29;20078;-71
2022/07/17 04:32:37;;;;;;;7.05;2.88;;;12.20;99.90;;;;;;4937447;29;20055;-71
2022/07/17 04:35:03;;;;;;;5.85;2.90;;;12.20;99.90;;;;;;4937186;29;20102;-71
2022/07/17 04:37:28;;;;;;;6.07;2.35;;;12.20;99.90;;;;;;4937433;29;20090;-71
2022/07/17 04:39:54;;;;;;;4.55;2.53;;;12.30;99.90;;;;;;4936795;29;20532;-71
2022/07/17 04:42:20;;;;;;;4.10;2.10;;;12.20;99.90;;;;;;4937531;28;20042;-71
2022/07/17 04:44:45;;;;;;;5.38;2.33;;;12.30;99.90;;;;;;4937008;29;20502;-71
2022/07/17 04:47:11;;;;;;;3.03;2.13;;;12.20;99.90;;;;;;4936950;29;20386;-71
2022/07/17 04:49:36;;;;;;;4.75;2.33;;;12.30;99.90;;;;;;4936653;29;20074;-71
2022/07/17 04:52:02;;;;;;;5.93;2.78;;;12.40;99.90;;;;;;4936915;28;20126;-71
2022/07/17 04:54:28;;;;;;;4.47;2.53;;;12.40;99.90;;;;;;4936903;29;20070;-71
2022/07/17 04:56:53;;;;;;;6.35;2.58;;;12.50;99.90;;;;;;4936829;29;20042;-71
2022/07/17 04:59:19;;;;;;;6.45;3.05;;;12.50;99.90;;;;;;4936677;28;20130;-72
2022/07/17 05:01:44;;;;;;;6.28;2.25;;;12.50;99.90;;;;;;4936739;29;20490;-71
2022/07/17 05:04:10;;;;;;;3.95;2.25;;;12.50;99.90;;;;;;4936867;29;20461;-71
2022/07/17 05:06:35;;;;;;;3.75;2.25;;;12.50;99.90;;;;;;4936745;29;20082;-71
2022/07/17 05:09:01;;;;;;;5.07;2.50;;;12.50;99.90;;;;;;4953990;29;20462;-71
2022/07/17 05:11:27;;;;;;;5.03;1.88;;;12.50;99.90;;;;;;4920555;29;20118;-71
2022/07/17 05:13:52;;;;;;;2.80;1.95;;;12.50;99.90;;;;;;4936517;28;20046;-70
2022/07/17 05:16:18;;;;;;;5.00;1.95;;;12.50;99.90;;;;;;4936677;29;20093;-71
2022/07/17 05:18:43;;;;;;;3.67;2.50;;;12.50;99.90;;;;;;4936552;29;20050;-71
2022/07/17 05:21:09;;;;;;;4.93;2.28;;;12.60;99.90;;;;;;4936185;29;20039;-71
2022/07/17 05:23:34;;;;;;;3.63;1.95;;;12.60;99.90;;;;;;4936407;29;20053;-71
2022/07/17 05:26:00;;;;;;;4.25;2.10;;;12.60;99.90;;;;;;4936232;29;20047;-71
2022/07/17 05:28:25;;;;;;;3.42;1.75;;;12.70;99.90;;;;;;4936443;29;20058;-70
2022/07/17 05:30:51;;;;;;;3.10;2.30;;;12.80;99.90;;;;;;4936203;29;20436;-71
2022/07/17 05:33:16;;;;;;;2.65;1.83;;;12.70;99.90;;;;;;4988946;23;20463;-70
2022/07/17 05:35:42;;;;;;;7.28;2.58;;;12.80;99.90;;;;;;5014249;28;20499;-71
2022/07/17 05:38:10;;;;;;;5.57;2.10;;;12.90;99.90;;;;;;5031705;28;20049;-71
2022/07/17 05:40:35;;;;;;;6.97;2.42;;;12.90;99.90;;;;;;5031180;28;20033;-71
2022/07/17 05:43:01;;;;;;;3.30;1.98;;;13.20;99.90;;;;;;5031376;28;20517;-71
2022/07/17 05:45:26;;;;;;;4.75;2.28;;;13.20;99.90;;;;;;5031666;28;20041;-71
2022/07/17 05:47:52;;;;;;;2.33;1.70;;;13.10;99.90;;;;;;5031640;28;20453;-71
2022/07/17 05:50:17;;;;;;;5.85;1.85;;;13.20;99.90;;;;;;5031281;28;20040;-71
2022/07/17 05:52:43;;;;;;;5.68;2.00;;;13.30;99.90;;;;;;5031343;28;20065;-71
2022/07/17 05:55:09;;;;;;;8.32;2.03;;;13.50;99.90;;;;;;5031549;28;20080;-71
2022/07/17 05:57:34;;;;;;;6.47;2.05;;;13.60;99.90;;;;;;5031406;28;20043;-71
2022/07/17 06:00:00;;;;;;;5.90;1.92;;;13.70;99.90;;;;;;5031337;28;20503;-71
2022/07/17 06:02:26;;;;;;;3.35;1.83;;;13.90;99.90;;;;;;5031446;28;20487;-71
2022/07/17 06:04:51;;;;;;;5.40;2.13;;;14.20;99.90;;;;;;5013699;28;20080;-71
2022/07/17 06:07:17;;;;;;;3.88;1.83;;;14.60;99.90;;;;;;5031365;28;20052;-71
2022/07/17 06:09:42;;;;;;;6.35;1.85;;;15.30;99.90;;;;;;5031087;28;20037;-71
2022/07/17 06:12:08;;;;;;;2.75;1.70;;;15.60;99.90;;;;;;5031202;28;20403;-71
2022/07/17 06:14:33;;;;;;;4.10;1.10;;;16.00;99.90;;;;;;5029090;28;20033;-72
2022/07/17 06:16:59;;;;;;;4.82;1.63;;;16.40;99.90;;;;;;5013747;28;20124;-71
2022/07/17 06:19:25;;;;;;;2.80;1.50;;;16.70;99.90;;;;;;5032380;28;20120;-71
2022/07/17 06:21:50;;;;;;;5.75;1.55;;;17.10;99.90;;;;;;5033132;28;20203;-71
2022/07/17 06:24:16;;;;;;;14.30;2.20;;;17.40;99.90;;;;;;5047050;28;20049;-71
2022/07/17 06:26:42;;;;;;;5.05;1.58;;;17.60;99.90;;;;;;5031061;28;20388;-72
2022/07/17 06:29:07;;;;;;;8.98;1.90;;;17.80;99.90;;;;;;5030935;28;20061;-72
2022/07/17 06:31:33;;;;;;;9.55;1.67;;;18.00;99.90;;;;;;5030957;28;20041;-72
2022/07/17 06:33:58;;;;;;;7.65;1.70;;;18.10;99.90;;;;;;5030849;28;20049;-72
2022/07/17 06:36:24;;;;;;;7.63;1.80;;;18.30;99.90;;;;;;5031184;28;20038;-72
2022/07/17 06:38:49;;;;;;;2.58;1.33;;;18.40;99.90;;;;;;5033027;28;20574;-72
2022/07/17 06:41:15;;;;;;;2.90;1.10;;;18.70;99.90;;;;;;5034274;28;20521;-72
2022/07/17 06:43:40;;;;;;;7.80;1.52;;;19.00;99.90;;;;;;5034707;28;20553;-72
2022/07/17 06:46:06;;;;;;;5.50;1.80;;;19.20;99.90;;;;;;5034582;28;20049;-72
2022/07/17 06:48:32;;;;;;;3.28;1.40;;;19.00;99.90;;;;;;5034549;28;20042;-72
2022/07/17 06:50:57;;;;;;;7.90;1.60;;;18.70;99.90;;;;;;5034211;28;20059;-72
2022/07/17 06:53:23;;;;;;;5.03;1.40;;;18.30;99.90;;;;;;5016519;28;20068;-72
2022/07/17 06:55:48;;;;;;;4.75;1.50;;;18.10;99.90;;;;;;5034265;28;20052;-72
2022/07/17 06:58:14;;;;;;;5.78;1.70;;;17.80;99.90;;;;;;5034446;28;20415;-72
2022/07/17 07:00:40;;;;;;;4.70;1.30;;;17.60;99.90;;;;;;5034181;28;20045;-72
2022/07/17 07:03:05;;;;;;;4.80;1.30;;;17.30;99.90;;;;;;5034220;28;20568;-72
2022/07/17 07:05:31;;;;;;;4.40;1.45;;;17.20;99.90;;;;;;5034034;28;20049;-72
2022/07/17 07:07:56;;;;;;;3.65;1.02;;;17.10;99.90;;;;;;5034057;28;20064;-70
2022/07/17 07:10:22;;;;;;;3.92;1.50;;;17.00;99.90;;;;;;5033744;28;20045;-70
2022/07/17 07:12:47;;;;;;;6.95;1.35;;;16.80;99.90;;;;;;5034170;28;20468;-71
2022/07/17 07:15:14;;;;;;;3.90;1.40;;;16.80;99.90;;;;;;5016469;28;20048;-71
2022/07/17 07:17:40;;;;;;;6.18;1.60;;;16.80;99.90;;;;;;5033781;28;20488;-70
2022/07/17 07:20:07;;;;;;;6.88;1.00;;;16.70;99.90;;;;;;5033691;28;20051;-70
2022/07/17 07:22:32;;;;;;;3.78;1.30;;;16.70;99.90;;;;;;5033837;28;20037;-70
2022/07/17 07:24:58;;;;;;;5.63;1.50;;;16.70;99.90;;;;;;5033713;28;20368;-70
2022/07/17 07:27:23;;;;;;;7.05;1.65;;;16.70;99.90;;;;;;5033899;28;20120;-70
2022/07/17 07:29:49;;;;;;;8.63;1.73;;;16.70;99.90;;;;;;5033426;28;20061;-70
2022/07/17 07:32:15;;;;;;;4.30;0.90;;;16.80;99.90;;;;;;5027528;28;20065;-70
2022/07/17 07:34:41;;;;;;;4.22;1.20;;;16.70;99.90;;;;;;5023764;28;20091;-70
2022/07/17 07:37:07;;;;;;;4.60;1.30;;;16.70;99.90;;;;;;5016336;28;20042;-70
2022/07/17 07:39:32;;;;;;;6.68;1.50;;;16.70;99.90;;;;;;5013422;28;20042;-70
2022/07/17 07:41:58;;;;;;;5.28;1.70;;;16.80;99.90;;;;;;4996640;28;20484;-70
2022/07/17 07:44:24;;;;;;;3.63;1.25;;;16.80;99.90;;;;;;5013772;28;20103;-70
2022/07/17 07:46:49;;;;;;;2.20;1.10;;;16.90;99.90;;;;;;5013498;28;20046;-70
2022/07/17 07:49:15;;;;;;;6.10;1.48;;;16.90;99.90;;;;;;4995828;28;20518;-70
2022/07/17 07:51:41;;;;;;;5.65;1.58;;;16.90;99.90;;;;;;5013520;28;20033;-70
2022/07/17 07:54:07;;;;;;;3.58;1.77;;;17.00;99.90;;;;;;5013325;28;20113;-70
2022/07/17 07:56:33;;;;;;;5.10;1.20;;;17.00;99.90;;;;;;5013596;28;20456;-70
2022/07/17 07:58:59;;;;;;;4.72;1.23;;;17.10;99.90;;;;;;4995992;28;20042;-70
2022/07/17 08:01:24;;;;;;;5.45;1.52;;;17.20;99.90;;;;;;5013142;28;20056;-71
2022/07/17 08:03:50;;;;;;;7.25;1.98;;;17.20;99.90;;;;;;5013331;28;20116;-68
2022/07/17 08:06:15;;;;;;;5.68;1.20;;;17.30;99.90;;;;;;5013166;28;20557;-70
2022/07/17 08:08:41;;;;;;;4.72;1.60;;;17.30;99.90;;;;;;5022341;28;20451;-70
2022/07/17 08:11:06;;;;;;;3.10;1.30;;;17.40;99.90;;;;;;5029677;28;20041;-70
2022/07/17 08:13:32;;;;;;;4.30;1.40;;;17.40;99.90;;;;;;5032879;28;20491;-70
2022/07/17 08:15:58;;;;;;;7.22;1.50;;;17.60;99.90;;;;;;5032925;28;20050;-70
2022/07/17 08:18:25;;;;;;;4.53;1.13;;;17.50;99.90;;;;;;5032878;28;20426;-70
2022/07/17 08:20:51;;;;;;;2.95;1.00;;;17.60;99.90;;;;;;5032448;28;20037;-71
2022/07/17 08:23:17;;;;;;;3.17;1.17;;;17.60;99.90;;;;;;5032556;28;20045;-70
2022/07/17 08:25:43;;;;;;;4.28;1.10;;;17.60;99.90;;;;;;5032486;28;20064;-71
2022/07/17 08:28:09;;;;;;;11.95;1.85;;;17.70;99.90;;;;;;5029064;28;20503;-71
2022/07/17 08:30:36;;;;;;;9.15;1.40;;;18.30;99.90;;;;;;5021138;28;20041;-71
2022/07/17 08:33:06;;;;;;;3.38;1.08;;;18.90;99.90;;;;;;5032428;28;20042;-71
2022/07/17 08:35:32;;;;;;;4.55;2.10;;;19.40;99.90;;;;;;5032531;28;20037;-71
2022/07/17 08:38:00;;;;;;;6.28;1.02;;;19.80;99.60;;;;;;5032329;28;20037;-71
2022/07/17 08:40:28;;;;;;;3.38;1.00;;;20.40;99.10;;;;;;5032276;28;20049;-71
2022/07/17 08:42:55;;;;;;;6.35;1.95;;;20.70;98.50;;;;;;5032409;28;20041;-71
2022/07/17 08:45:21;;;;;;;6.93;1.50;;;21.10;97.10;;;;;;5032105;28;20499;-72
2022/07/17 08:47:49;;;;;;;7.53;1.90;;;21.30;96.20;;;;;;5032365;28;20037;-71
2022/07/17 08:50:15;;;;;;;5.25;1.27;;;21.70;95.30;;;;;;5027493;28;20108;-71
2022/07/17 08:52:42;;;;;;;5.45;1.55;;;22.00;94.30;;;;;;5029381;28;20452;-71
2022/07/17 08:55:10;;;;;;;5.00;1.70;;;22.10;93.50;;;;;;5031591;28;20511;-72
2022/07/17 08:57:38;;;;;;;4.07;1.20;;;22.00;92.00;;;;;;5032075;28;20040;-72
2022/07/17 09:00:04;;;;;;;4.72;1.17;;;21.90;90.70;;;;;;5031699;28;20056;-72
2022/07/17 09:02:30;;;;;;;3.03;1.15;;;22.00;90.90;;;;;;5031617;28;20116;-71
2022/07/17 09:04:56;;;;;;;4.47;1.10;;;21.80;89.50;;;;;;4997915;28;20073;-72
2022/07/17 09:07:22;;;;;;;4.75;1.00;;;22.00;89.70;;;;;;5032076;28;20050;-72
2022/07/17 09:09:51;;;;;;;8.15;1.65;;;22.00;89.70;;;;;;5031624;28;20069;-72
2022/07/17 09:12:17;;;;;;;4.30;1.10;;;22.50;90.10;;;;;;5032057;28;20091;-72
2022/07/17 09:14:43;;;;;;;7.63;1.30;;;22.60;88.00;;;;;;5014411;28;20049;-72
2022/07/17 09:17:10;;;;;;;5.72;1.27;;;22.80;87.00;;;;;;5031837;28;20037;-72
2022/07/17 09:19:46;;;;;;;6.72;1.05;;;23.00;84.00;;;;;;5031410;28;20091;-72
2022/07/17 09:22:20;;;;;;;4.85;1.08;;;23.10;79.80;;;;;;5032045;28;20376;-72
2022/07/17 09:24:51;;;;;;;5.13;0.90;;;23.30;81.20;;;;;;5015087;28;20404;-72
2022/07/17 09:27:23;;;;;;;5.30;1.30;;;23.40;78.30;;;;;;4994287;28;20046;-72
2022/07/17 09:30:00;;;;;;;6.25;1.45;;;23.20;75.70;;;;;;5011654;28;20045;-72
2022/07/17 09:32:29;;;;;;;3.00;1.00;;;23.10;77.10;;;;;;5012218;28;20064;-72
2022/07/17 09:34:56;;;;;;;2.38;0.80;;;23.10;77.20;;;;;;5012238;28;20037;-72
2022/07/17 09:37:26;;;;;;;4.70;1.10;;;23.30;77.80;;;;;;5012054;28;20048;-72
2022/07/17 09:39:55;;;;;;;3.17;1.20;;;23.40;76.30;;;;;;5011623;28;20743;-72
2022/07/17 09:42:32;;;;;;;4.82;1.20;;;23.40;77.50;;;;;;5011693;28;20509;-72
2022/07/17 09:45:05;;;;;;;2.42;0.80;;;23.70;76.70;;;;;;5000805;28;20110;-72
2022/07/17 09:47:34;;;;;;;5.10;1.08;;;23.90;76.50;;;;;;5031568;28;20048;-72
2022/07/17 09:50:02;;;;;;;2.97;0.95;;;23.70;75.30;;;;;;5031356;28;20045;-72
2022/07/17 09:52:31;;;;;;;6.15;0.95;;;23.80;74.70;;;;;;5013685;28;20052;-72
2022/07/17 09:54:58;;;;;;;3.00;1.00;;;23.70;73.50;;;;;;5031611;28;20037;-72
2022/07/17 09:57:34;;;;;;;3.05;1.48;;;23.70;73.20;;;;;;4997709;28;20041;-72
2022/07/17 10:00:12;;;;;;;6.43;1.10;;;23.70;74.90;;;;;;5031018;28;20037;-71
2022/07/17 10:02:40;;;;;;;3.58;1.08;;;23.20;70.90;;;;;;5013898;28;20068;-71
2022/07/17 10:05:15;;;;;;;6.28;1.15;;;23.10;73.90;;;;;;5013604;28;20041;-72
2022/07/17 10:07:47;;;;;;;3.90;0.90;;;23.20;75.30;;;;;;5013817;28;20038;-72
2022/07/17 10:10:14;;;;;;;4.20;1.23;;;23.10;74.50;;;;;;5013618;28;20073;-71
2022/07/17 10:12:43;;;;;;;3.38;1.10;;;22.90;74.90;;;;;;5031437;28;20414;-72
2022/07/17 10:15:10;;;;;;;6.32;1.20;;;23.10;75.60;;;;;;5035219;28;20164;-72
2022/07/17 10:17:36;;;;;;;7.53;1.70;;;22.90;75.80;;;;;;5001125;28;20037;-72
2022/07/17 10:20:05;;;;;;;3.70;1.70;;;23.00;72.90;;;;;;5016933;28;20116;-72
2022/07/17 10:22:42;;;;;;;4.32;1.10;;;23.10;73.80;;;;;;5035088;28;20046;-72
2022/07/17 10:25:11;;;;;;;3.33;1.30;;;23.10;74.60;;;;;;5035037;28;20034;-71
2022/07/17 10:27:45;;;;;;;3.75;1.20;;;23.00;73.20;;;;;;5034914;28;20453;-72
2022/07/17 10:30:11;;;;;;;4.05;1.05;;;23.10;72.30;;;;;;5034667;28;20064;-72
2022/07/17 10:32:38;;;;;;;3.53;1.13;;;23.20;72.00;;;;;;5017008;28;20440;-73
2022/07/17 10:35:09;;;;;;;3.75;1.00;;;23.30;72.00;;;;;;5017073;28;20128;-73
2022/07/17 10:37:34;;;;;;;3.70;1.13;;;23.20;72.90;;;;;;5034827;28;20042;-73
2022/07/17 10:40:16;;;;;;;2.67;1.10;;;22.70;71.70;;;;;;5034386;28;20399;-72
2022/07/17 10:42:49;;;;;;;6.05;1.48;;;22.30;69.90;;;;;;5017020;28;20052;-72
2022/07/17 10:45:23;;;;;;;4.28;1.13;;;22.70;72.10;;;;;;5034250;28;20033;-73
2022/07/17 10:47:57;;;;;;;3.97;1.50;;;22.80;71.40;;;;;;5017006;28;20034;-73
2022/07/17 10:50:29;;;;;;;4.65;1.30;;;22.80;71.40;;;;;;5034229;28;20049;-72
2022/07/17 10:53:05;;;;;;;3.20;1.67;;;22.80;71.40;;;;;;5034369;28;20045;-72
2022/07/17 10:55:31;;;;;;;4.25;1.50;;;22.80;73.00;;;;;;5016583;28;20056;-72
2022/07/17 10:57:58;;;;;;;5.55;1.88;;;22.80;72.50;;;;;;5016707;28;20395;-72
2022/07/17 11:00:24;;;;;;;6.05;1.73;;;22.90;73.80;;;;;;5034226;28;20059;-72
2022/07/17 11:02:50;;;;;;;2.50;0.95;;;22.80;73.60;;;;;;5016692;28;20541;-72
2022/07/17 11:05:17;;;;;;;1.55;1.00;;;22.90;74.10;;;;;;5034192;28;20033;-72
2022/07/17 11:08:09;;;;;;;4.88;1.23;;;23.00;75.50;;;;;;5034164;28;20037;-71
2022/07/17 11:10:37;;;;;;;4.15;1.52;;;23.00;73.70;;;;;;5012392;28;20054;-72
2022/07/17 11:13:15;;;;;;;7.18;1.60;;;22.90;74.20;;;;;;5016202;28;20043;-71
2022/07/17 11:15:49;;;;;;;4.10;1.60;;;22.80;71.40;;;;;;5016330;28;20081;-71
2022/07/17 11:18:20;;;;;;;2.25;1.05;;;22.80;71.70;;;;;;5013576;28;20044;-72
2022/07/17 11:20:54;;;;;;;5.18;1.30;;;22.70;73.80;;;;;;5013190;28;20410;-71
2022/07/17 11:23:22;;;;;;;4.78;1.30;;;22.80;73.00;;;;;;5033736;28;20072;-71
2022/07/17 11:25:59;;;;;;;3.78;1.30;;;22.80;73.30;;;;;;5033482;28;20533;-72
2022/07/17 11:28:38;;;;;;;3.72;0.95;;;22.90;71.40;;;;;;5015977;28;20073;-72
2022/07/17 11:31:16;;;;;;;2.35;1.00;;;23.00;73.50;;;;;;5015918;28;20403;-72
2022/07/17 11:33:55;;;;;;;3.00;1.10;;;22.90;73.20;;;;;;5027024;23;20046;-72
2022/07/17 11:36:33;;;;;;;2.67;1.20;;;23.00;75.60;;;;;;5016458;28;20677;-72
2022/07/17 11:39:10;;;;;;;5.93;1.77;;;22.90;74.70;;;;;;5002543;28;20100;-72
2022/07/17 11:41:39;;;;;;;2.80;0.77;;;22.80;71.30;;;;;;5005829;28;20074;-71
2022/07/17 11:44:07;;;;;;;4.43;1.20;;;22.80;72.60;;;;;;4974675;28;20125;-73
2022/07/17 11:46:34;;;;;;;2.33;1.40;;;22.70;71.40;;;;;;4974756;28;20051;-72
2022/07/17 11:48:59;;;;;;;3.88;1.20;;;22.90;73.70;;;;;;4973388;28;20035;-74
2022/07/17 11:51:43;;;;;;;3.45;1.50;;;23.00;74.60;;;;;;4956841;28;20094;-73
2022/07/17 11:54:15;;;;;;;6.95;3.63;;;22.90;74.00;;;;;;4957454;28;20045;-72
2022/07/17 11:56:42;;;;;;;4.88;1.60;;;22.90;73.90;;;;;;4973249;28;20101;-73
2022/07/17 11:59:09;;;;;;;3.30;1.58;;;23.10;73.80;;;;;;4973059;28;20448;-72
2022/07/17 12:01:42;;;;;;;7.65;3.13;;;23.10;71.00;;;;;;4972733;28;20042;-73
2022/07/17 12:04:10;;;;;;;5.57;1.75;;;22.50;69.50;;;;;;4974504;28;20098;-73
2022/07/17 12:06:37;;;;;;;3.38;1.38;;;22.70;72.80;;;;;;4973290;28;20089;-73
2022/07/17 12:09:02;;;;;;;4.55;1.30;;;22.70;72.70;;;;;;4974292;28;20493;-72
2022/07/17 12:11:28;;;;;;;4.18;1.42;;;22.70;73.80;;;;;;4972595;28;20122;-73
2022/07/17 12:13:53;;;;;;;4.13;1.45;;;22.40;70.90;;;;;;4974006;28;20050;-73
2022/07/17 12:16:26;;;;;;;2.90;1.42;;;22.50;71.90;;;;;;4973169;28;20042;-72
2022/07/17 12:19:00;;;;;;;;;;;22.60;73.30;;;;;;4972965;28;20050;-71
2022/07/17 12:21:26;;;;;;;4.15;1.48;;;22.50;74.70;;;;;;4982478;28;20276;-73
2022/07/17 12:23:58;;;;;;;2.45;1.40;;;22.60;73.30;;;;;;4981880;28;20659;-73
2022/07/17 12:26:24;;;;;;;4.80;1.50;;;22.70;73.10;;;;;;4975892;28;20101;-72
2022/07/17 12:28:50;;;;;;;4.03;1.50;;;22.80;72.30;;;;;;4992259;28;20038;-72
2022/07/17 12:31:15;;;;;;;2.80;1.30;;;22.80;71.50;;;;;;4992818;28;20500;-73
2022/07/17 12:33:41;;;;;;;6.18;1.40;;;22.90;71.60;;;;;;4991727;28;20034;-72
2022/07/17 12:36:07;;;;;;;5.65;1.67;;;22.70;72.10;;;;;;4991281;28;20046;-73
2022/07/17 12:38:32;;;;;;;1.88;1.23;;;22.80;73.20;;;;;;4993246;28;20125;-72
2022/07/17 12:40:59;;;;;;;4.43;1.50;;;22.80;72.60;;;;;;4992804;28;20038;-73
2022/07/17 12:43:24;;;;;;;3.50;1.80;;;22.80;71.40;;;;;;4993035;28;20468;-73
2022/07/17 12:45:50;;;;;;;3.30;1.75;;;23.00;73.30;;;;;;4991919;28;20042;-73
2022/07/17 12:48:16;;;;;;;6.05;1.48;;;23.00;71.70;;;;;;4991700;28;20496;-73
2022/07/17 12:50:42;;;;;;;2.88;1.80;;;22.80;69.30;;;;;;4991439;28;20500;-73